sensor_id;sensor_type;location;lat;lon;timestamp;pressure;altitude;pressure_sealevel;temperature;humidity
50123;BME280;36021;48.670;6.184;2023-05-16T00:00:38;98920.72;;;12.86;100.00
50123;BME280;36021;48.670;6.184;2023-05-16T00:03:05;98926.16;;;12.91;100.00
50123;BME280;36021;48.670;6.184;2023-05-16T00:05:31;98931.50;;;12.88;100.00
50123;BME280;36021;48.670;6.184;2023-05-16T00:07:59;98917.16;;;12.86;100.00
50123;BME280;36021;48.670;6.184;2023-05-16T00:10:25;98919.53;;;12.79;100.00
50123;BME280;36021;48.670;6.184;2023-05-16T00:12:50;98921.69;;;12.82;100.00
50123;BME280;36021;48.670;6.184;2023-05-16T00:15:17;98920.66;;;12.78;100.00
50123;BME280;36021;48.670;6.184;2023-05-16T00:17:45;98914.94;;;12.74;100.00
50123;BME280;36021;48.670;6.184;2023-05-16T00:20:15;98914.53;;;12.67;100.00
50123;BME280;36021;48.670;6.184;2023-05-16T00:22:43;98923.25;;;12.61;100.00
50123;BME280;36021;48.670;6.184;2023-05-16T00:25:09;98919.38;;;12.48;100.00
50123;BME280;36021;48.670;6.184;2023-05-16T00:27:36;98911.03;;;12.39;100.00
50123;BME280;36021;48.670;6.184;2023-05-16T00:30:04;98915.41;;;12.40;100.00
50123;BME280;36021;48.670;6.184;2023-05-16T00:32:31;98906.63;;;12.38;100.00
50123;BME280;36021;48.670;6.184;2023-05-16T00:34:58;98909.28;;;12.30;100.00
50123;BME280;36021;48.670;6.184;2023-05-16T00:37:24;98912.16;;;12.25;100.00
50123;BME280;36021;48.670;6.184;2023-05-16T00:39:50;98904.19;;;12.23;100.00
50123;BME280;36021;48.670;6.184;2023-05-16T00:42:18;98905.38;;;12.17;100.00
50123;BME280;36021;48.670;6.184;2023-05-16T00:44:44;98912.34;;;12.15;100.00
50123;BME280;36021;48.670;6.184;2023-05-16T00:47:10;98910.91;;;12.17;100.00
50123;BME280;36021;48.670;6.184;2023-05-16T00:49:36;98912.78;;;12.22;100.00
50123;BME280;36021;48.670;6.184;2023-05-16T00:52:02;98910.84;;;12.22;100.00
50123;BME280;36021;48.670;6.184;2023-05-16T00:54:30;98909.81;;;12.18;100.00
50123;BME280;36021;48.670;6.184;2023-05-16T00:56:56;98918.72;;;12.15;100.00
50123;BME280;36021;48.670;6.184;2023-05-16T00:59:24;98920.34;;;12.16;100.00
50123;BME280;36021;48.670;6.184;2023-05-16T01:01:50;98924.22;;;12.15;100.00
50123;BME280;36021;48.670;6.184;2023-05-16T01:04:18;98929.13;;;12.18;100.00
50123;BME280;36021;48.670;6.184;2023-05-16T01:06:44;98919.31;;;12.12;100.00
50123;BME280;36021;48.670;6.184;2023-05-16T01:09:12;98926.28;;;12.10;100.00
50123;BME280;36021;48.670;6.184;2023-05-16T01:15:01;98923.63;;;12.05;100.00
50123;BME280;36021;48.670;6.184;2023-05-16T01:20:48;98931.91;;;11.91;100.00
50123;BME280;36021;48.670;6.184;2023-05-16T01:28:41;98937.13;;;12.06;100.00
50123;BME280;36021;48.670;6.184;2023-05-16T01:31:08;98932.09;;;12.08;100.00
50123;BME280;36021;48.670;6.184;2023-05-16T01:33:33;98942.66;;;12.06;100.00
50123;BME280;36021;48.670;6.184;2023-05-16T01:41:27;98925.47;;;12.09;100.00
50123;BME280;36021;48.670;6.184;2023-05-16T01:44:04;98928.13;;;12.14;100.00
50123;BME280;36021;48.670;6.184;2023-05-16T01:46:36;98932.44;;;12.20;100.00
50123;BME280;36021;48.670;6.184;2023-05-16T01:49:15;98934.78;;;12.13;100.00
50123;BME280;36021;48.670;6.184;2023-05-16T01:52:05;98935.91;;;12.12;100.00
50123;BME280;36021;48.670;6.184;2023-05-16T01:54:34;98938.66;;;12.12;100.00
50123;BME280;36021;48.670;6.184;2023-05-16T01:57:03;98939.50;;;12.13;100.00
50123;BME280;36021;48.670;6.184;2023-05-16T01:59:29;98933.25;;;12.07;100.00
50123;BME280;36021;48.670;6.184;2023-05-16T02:01:56;98941.22;;;12.09;100.00
50123;BME280;36021;48.670;6.184;2023-05-16T02:04:22;98936.09;;;12.16;100.00
50123;BME280;36021;48.670;6.184;2023-05-16T02:06:49;98942.53;;;12.25;100.00
50123;BME280;36021;48.670;6.184;2023-05-16T02:09:15;98940.59;;;12.25;100.00
50123;BME280;36021;48.670;6.184;2023-05-16T02:11:41;98946.13;;;12.12;100.00
50123;BME280;36021;48.670;6.184;2023-05-16T02:14:07;98941.84;;;12.19;100.00
50123;BME280;36021;48.670;6.184;2023-05-16T02:16:35;98940.31;;;12.13;100.00
50123;BME280;36021;48.670;6.184;2023-05-16T02:19:01;98935.28;;;12.15;100.00
50123;BME280;36021;48.670;6.184;2023-05-16T02:21:27;98943.38;;;12.25;100.00
50123;BME280;36021;48.670;6.184;2023-05-16T02:23:53;98934.66;;;12.18;100.00
50123;BME280;36021;48.670;6.184;2023-05-16T02:26:18;98938.88;;;12.16;100.00
50123;BME280;36021;48.670;6.184;2023-05-16T02:28:47;98938.66;;;12.12;100.00
50123;BME280;36021;48.670;6.184;2023-05-16T02:31:27;98947.88;;;12.21;100.00
50123;BME280;36021;48.670;6.184;2023-05-16T02:33:53;98946.44;;;12.10;100.00
50123;BME280;36021;48.670;6.184;2023-05-16T02:36:20;98957.34;;;11.88;100.00
50123;BME280;36021;48.670;6.184;2023-05-16T02:38:47;98951.34;;;11.86;100.00
50123;BME280;36021;48.670;6.184;2023-05-16T02:41:12;98947.75;;;11.85;100.00
50123;BME280;36021;48.670;6.184;2023-05-16T02:43:38;98943.38;;;11.66;100.00
50123;BME280;36021;48.670;6.184;2023-05-16T02:46:18;98955.22;;;11.52;100.00
50123;BME280;36021;48.670;6.184;2023-05-16T02:48:45;98950.22;;;11.55;100.00
50123;BME280;36021;48.670;6.184;2023-05-16T02:51:12;98957.84;;;11.44;100.00
50123;BME280;36021;48.670;6.184;2023-05-16T02:53:37;98953.78;;;11.41;100.00
50123;BME280;36021;48.670;6.184;2023-05-16T02:56:03;98953.22;;;11.58;100.00
50123;BME280;36021;48.670;6.184;2023-05-16T02:58:32;98954.38;;;11.52;100.00
50123;BME280;36021;48.670;6.184;2023-05-16T03:00:59;98950.50;;;11.53;100.00
50123;BME280;36021;48.670;6.184;2023-05-16T03:03:25;98948.59;;;11.54;100.00
50123;BME280;36021;48.670;6.184;2023-05-16T03:05:50;98952.38;;;11.58;100.00
50123;BME280;36021;48.670;6.184;2023-05-16T03:08:17;98947.28;;;11.65;100.00
50123;BME280;36021;48.670;6.184;2023-05-16T03:10:43;98948.88;;;11.71;100.00
50123;BME280;36021;48.670;6.184;2023-05-16T03:13:08;98956.75;;;11.77;100.00
50123;BME280;36021;48.670;6.184;2023-05-16T03:15:34;98952.56;;;11.80;100.00
50123;BME280;36021;48.670;6.184;2023-05-16T03:18:01;98956.03;;;11.85;100.00
50123;BME280;36021;48.670;6.184;2023-05-16T03:20:28;98961.25;;;11.87;100.00
50123;BME280;36021;48.670;6.184;2023-05-16T03:22:55;98959.00;;;11.89;100.00
50123;BME280;36021;48.670;6.184;2023-05-16T03:25:21;98953.47;;;11.89;100.00
50123;BME280;36021;48.670;6.184;2023-05-16T03:27:46;98956.34;;;11.84;100.00
50123;BME280;36021;48.670;6.184;2023-05-16T03:30:14;98959.31;;;12.01;100.00
50123;BME280;36021;48.670;6.184;2023-05-16T03:32:44;98959.84;;;12.03;100.00
50123;BME280;36021;48.670;6.184;2023-05-16T03:35:10;98963.09;;;12.05;100.00
50123;BME280;36021;48.670;6.184;2023-05-16T03:37:37;98971.09;;;12.07;100.00
50123;BME280;36021;48.670;6.184;2023-05-16T03:40:03;98964.25;;;12.04;100.00
50123;BME280;36021;48.670;6.184;2023-05-16T03:42:32;98968.81;;;11.95;100.00
50123;BME280;36021;48.670;6.184;2023-05-16T03:44:58;98967.22;;;11.94;100.00
50123;BME280;36021;48.670;6.184;2023-05-16T03:47:23;98966.59;;;11.97;100.00
50123;BME280;36021;48.670;6.184;2023-05-16T03:49:50;98972.94;;;11.97;100.00
50123;BME280;36021;48.670;6.184;2023-05-16T03:52:16;98969.75;;;11.90;100.00
50123;BME280;36021;48.670;6.184;2023-05-16T03:54:42;98968.81;;;11.81;100.00
50123;BME280;36021;48.670;6.184;2023-05-16T03:57:08;98972.91;;;11.84;100.00
50123;BME280;36021;48.670;6.184;2023-05-16T03:59:34;98974.13;;;11.91;100.00
50123;BME280;36021;48.670;6.184;2023-05-16T04:02:00;98983.56;;;11.90;100.00
50123;BME280;36021;48.670;6.184;2023-05-16T04:04:26;98982.13;;;11.93;100.00
50123;BME280;36021;48.670;6.184;2023-05-16T04:06:54;98988.88;;;11.87;100.00
50123;BME280;36021;48.670;6.184;2023-05-16T04:09:21;98991.03;;;11.90;100.00
50123;BME280;36021;48.670;6.184;2023-05-16T04:11:47;98987.22;;;11.86;100.00
50123;BME280;36021;48.670;6.184;2023-05-16T04:14:13;98992.34;;;11.92;100.00
50123;BME280;36021;48.670;6.184;2023-05-16T04:16:40;98993.69;;;11.95;100.00
50123;BME280;36021;48.670;6.184;2023-05-16T04:19:06;98990.72;;;11.78;100.00
50123;BME280;36021;48.670;6.184;2023-05-16T04:21:32;98996.63;;;11.85;100.00
50123;BME280;36021;48.670;6.184;2023-05-16T04:23:58;99005.53;;;11.82;100.00
50123;BME280;36021;48.670;6.184;2023-05-16T04:26:25;99001.53;;;11.88;100.00
50123;BME280;36021;48.670;6.184;2023-05-16T04:28:52;99008.81;;;11.84;100.00
50123;BME280;36021;48.670;6.184;2023-05-16T04:31:18;99007.66;;;11.85;100.00
50123;BME280;36021;48.670;6.184;2023-05-16T04:33:44;99003.09;;;11.80;100.00
50123;BME280;36021;48.670;6.184;2023-05-16T04:36:11;99009.03;;;11.69;100.00
50123;BME280;36021;48.670;6.184;2023-05-16T04:38:36;99021.72;;;11.70;100.00
50123;BME280;36021;48.670;6.184;2023-05-16T04:41:02;99020.06;;;11.69;100.00
50123;BME280;36021;48.670;6.184;2023-05-16T04:43:28;99031.69;;;11.71;100.00
50123;BME280;36021;48.670;6.184;2023-05-16T04:45:53;99021.28;;;11.63;100.00
50123;BME280;36021;48.670;6.184;2023-05-16T04:48:19;99029.50;;;11.68;100.00
50123;BME280;36021;48.670;6.184;2023-05-16T04:50:45;99022.50;;;11.57;100.00
50123;BME280;36021;48.670;6.184;2023-05-16T04:53:10;99022.34;;;11.67;100.00
50123;BME280;36021;48.670;6.184;2023-05-16T04:55:36;99022.50;;;11.57;100.00
50123;BME280;36021;48.670;6.184;2023-05-16T04:58:02;99019.63;;;11.62;100.00
50123;BME280;36021;48.670;6.184;2023-05-16T05:00:28;99022.88;;;11.50;100.00
50123;BME280;36021;48.670;6.184;2023-05-16T05:02:53;99017.47;;;11.45;100.00
50123;BME280;36021;48.670;6.184;2023-05-16T05:05:19;99026.97;;;11.52;100.00
50123;BME280;36021;48.670;6.184;2023-05-16T05:07:46;99033.09;;;11.49;100.00
50123;BME280;36021;48.670;6.184;2023-05-16T05:10:12;99026.75;;;11.49;100.00
50123;BME280;36021;48.670;6.184;2023-05-16T05:12:38;99025.28;;;11.38;100.00
50123;BME280;36021;48.670;6.184;2023-05-16T05:15:04;99033.41;;;11.48;100.00
50123;BME280;36021;48.670;6.184;2023-05-16T05:17:32;99032.50;;;11.52;100.00
50123;BME280;36021;48.670;6.184;2023-05-16T05:19:57;99036.69;;;11.50;100.00
50123;BME280;36021;48.670;6.184;2023-05-16T05:22:23;99037.41;;;11.56;100.00
50123;BME280;36021;48.670;6.184;2023-05-16T05:24:50;99040.16;;;11.56;100.00
50123;BME280;36021;48.670;6.184;2023-05-16T05:27:16;99042.06;;;11.41;100.00
50123;BME280;36021;48.670;6.184;2023-05-16T05:29:43;99050.25;;;11.46;100.00
50123;BME280;36021;48.670;6.184;2023-05-16T05:32:09;99046.53;;;11.37;100.00
50123;BME280;36021;48.670;6.184;2023-05-16T05:34:36;99043.34;;;11.30;100.00
50123;BME280;36021;48.670;6.184;2023-05-16T05:37:01;99047.16;;;11.34;100.00
50123;BME280;36021;48.670;6.184;2023-05-16T05:39:27;99050.88;;;11.43;100.00
50123;BME280;36021;48.670;6.184;2023-05-16T05:41:52;99050.56;;;11.45;100.00
50123;BME280;36021;48.670;6.184;2023-05-16T05:44:18;99059.13;;;11.43;100.00
50123;BME280;36021;48.670;6.184;2023-05-16T05:46:44;99062.94;;;11.47;100.00
50123;BME280;36021;48.670;6.184;2023-05-16T05:49:10;99055.78;;;11.46;100.00
50123;BME280;36021;48.670;6.184;2023-05-16T05:51:36;99057.72;;;11.46;100.00
50123;BME280;36021;48.670;6.184;2023-05-16T05:54:01;99061.44;;;11.36;100.00
50123;BME280;36021;48.670;6.184;2023-05-16T05:56:28;99072.88;;;11.11;100.00
50123;BME280;36021;48.670;6.184;2023-05-16T05:58:57;99080.09;;;11.07;100.00
50123;BME280;36021;48.670;6.184;2023-05-16T06:01:24;99080.22;;;10.97;100.00
50123;BME280;36021;48.670;6.184;2023-05-16T06:03:50;99093.03;;;10.88;100.00
50123;BME280;36021;48.670;6.184;2023-05-16T06:06:16;99090.78;;;10.90;100.00
50123;BME280;36021;48.670;6.184;2023-05-16T06:08:43;99100.44;;;10.92;100.00
50123;BME280;36021;48.670;6.184;2023-05-16T06:11:09;99103.34;;;11.01;100.00
50123;BME280;36021;48.670;6.184;2023-05-16T06:13:35;99089.69;;;10.91;100.00
50123;BME280;36021;48.670;6.184;2023-05-16T06:16:00;99102.94;;;10.89;100.00
50123;BME280;36021;48.670;6.184;2023-05-16T06:18:26;99104.56;;;10.90;100.00
50123;BME280;36021;48.670;6.184;2023-05-16T06:20:52;99115.38;;;10.86;100.00
50123;BME280;36021;48.670;6.184;2023-05-16T06:23:17;99116.97;;;10.92;100.00
50123;BME280;36021;48.670;6.184;2023-05-16T06:25:43;99121.88;;;10.95;100.00
50123;BME280;36021;48.670;6.184;2023-05-16T06:28:09;99117.13;;;11.01;100.00
50123;BME280;36021;48.670;6.184;2023-05-16T06:30:35;99123.84;;;11.14;100.00
50123;BME280;36021;48.670;6.184;2023-05-16T06:33:01;99109.19;;;11.18;100.00
50123;BME280;36021;48.670;6.184;2023-05-16T06:35:27;99111.84;;;11.23;100.00
50123;BME280;36021;48.670;6.184;2023-05-16T06:37:53;99114.03;;;11.26;100.00
50123;BME280;36021;48.670;6.184;2023-05-16T06:40:18;99113.03;;;11.17;100.00
50123;BME280;36021;48.670;6.184;2023-05-16T06:42:44;99107.69;;;11.26;100.00
50123;BME280;36021;48.670;6.184;2023-05-16T06:45:10;99119.06;;;11.19;100.00
50123;BME280;36021;48.670;6.184;2023-05-16T06:47:36;99110.88;;;11.14;100.00
50123;BME280;36021;48.670;6.184;2023-05-16T06:50:02;99111.63;;;11.20;100.00
50123;BME280;36021;48.670;6.184;2023-05-16T06:52:28;99107.16;;;11.05;100.00
50123;BME280;36021;48.670;6.184;2023-05-16T06:54:53;99121.06;;;10.95;100.00
50123;BME280;36021;48.670;6.184;2023-05-16T06:57:20;99123.16;;;11.03;100.00
50123;BME280;36021;48.670;6.184;2023-05-16T06:59:48;99126.38;;;11.10;100.00
50123;BME280;36021;48.670;6.184;2023-05-16T07:02:13;99125.19;;;11.16;100.00
50123;BME280;36021;48.670;6.184;2023-05-16T07:04:39;99129.22;;;11.05;100.00
50123;BME280;36021;48.670;6.184;2023-05-16T07:07:05;99117.75;;;10.93;100.00
50123;BME280;36021;48.670;6.184;2023-05-16T07:09:34;99128.13;;;10.82;100.00
50123;BME280;36021;48.670;6.184;2023-05-16T07:11:59;99129.38;;;10.90;100.00
50123;BME280;36021;48.670;6.184;2023-05-16T07:14:25;99125.47;;;10.96;100.00
50123;BME280;36021;48.670;6.184;2023-05-16T07:16:51;99123.28;;;10.93;100.00
50123;BME280;36021;48.670;6.184;2023-05-16T07:19:16;99129.75;;;10.83;100.00
50123;BME280;36021;48.670;6.184;2023-05-16T07:21:42;99131.16;;;10.81;100.00
50123;BME280;36021;48.670;6.184;2023-05-16T07:24:08;99128.28;;;10.91;100.00
50123;BME280;36021;48.670;6.184;2023-05-16T07:26:36;99131.00;;;10.96;100.00
50123;BME280;36021;48.670;6.184;2023-05-16T07:29:03;99132.69;;;10.92;100.00
50123;BME280;36021;48.670;6.184;2023-05-16T07:31:31;99135.72;;;11.14;100.00
50123;BME280;36021;48.670;6.184;2023-05-16T07:33:56;99141.09;;;11.24;100.00
50123;BME280;36021;48.670;6.184;2023-05-16T07:36:22;99148.75;;;11.09;100.00
50123;BME280;36021;48.670;6.184;2023-05-16T07:38:48;99142.09;;;11.10;100.00
50123;BME280;36021;48.670;6.184;2023-05-16T07:41:14;99145.09;;;11.13;100.00
50123;BME280;36021;48.670;6.184;2023-05-16T07:43:39;99145.81;;;11.00;100.00
50123;BME280;36021;48.670;6.184;2023-05-16T07:46:05;99148.06;;;10.98;100.00
50123;BME280;36021;48.670;6.184;2023-05-16T07:48:30;99155.88;;;11.10;100.00
50123;BME280;36021;48.670;6.184;2023-05-16T07:50:56;99155.09;;;11.09;100.00
50123;BME280;36021;48.670;6.184;2023-05-16T07:53:22;99144.63;;;11.06;100.00
50123;BME280;36021;48.670;6.184;2023-05-16T07:55:48;99144.06;;;11.09;100.00
50123;BME280;36021;48.670;6.184;2023-05-16T07:58:15;99148.75;;;11.09;100.00
50123;BME280;36021;48.670;6.184;2023-05-16T08:00:41;99155.09;;;11.09;100.00
50123;BME280;36021;48.670;6.184;2023-05-16T08:03:06;99158.28;;;11.16;100.00
50123;BME280;36021;48.670;6.184;2023-05-16T08:05:32;99154.50;;;11.12;100.00
50123;BME280;36021;48.670;6.184;2023-05-16T08:07:59;99154.16;;;11.19;100.00
50123;BME280;36021;48.670;6.184;2023-05-16T08:10:24;99146.16;;;11.17;100.00
50123;BME280;36021;48.670;6.184;2023-05-16T08:12:50;99155.41;;;11.26;100.00
50123;BME280;36021;48.670;6.184;2023-05-16T08:15:17;99156.78;;;11.47;100.00
50123;BME280;36021;48.670;6.184;2023-05-16T08:17:43;99144.78;;;11.57;100.00
50123;BME280;36021;48.670;6.184;2023-05-16T08:20:09;99146.34;;;11.63;100.00
50123;BME280;36021;48.670;6.184;2023-05-16T08:22:35;99149.09;;;11.63;100.00
50123;BME280;36021;48.670;6.184;2023-05-16T08:25:01;99152.75;;;11.59;100.00
50123;BME280;36021;48.670;6.184;2023-05-16T08:27:27;99152.03;;;11.72;100.00
50123;BME280;36021;48.670;6.184;2023-05-16T08:29:55;99157.50;;;11.77;100.00
50123;BME280;36021;48.670;6.184;2023-05-16T08:32:21;99157.78;;;11.75;100.00
50123;BME280;36021;48.670;6.184;2023-05-16T08:34:48;99151.72;;;11.92;100.00
50123;BME280;36021;48.670;6.184;2023-05-16T08:37:13;99151.13;;;11.95;100.00
50123;BME280;36021;48.670;6.184;2023-05-16T08:39:39;99153.38;;;11.93;100.00
50123;BME280;36021;48.670;6.184;2023-05-16T08:42:05;99151.28;;;12.04;100.00
50123;BME280;36021;48.670;6.184;2023-05-16T08:44:31;99157.00;;;12.07;100.00
50123;BME280;36021;48.670;6.184;2023-05-16T08:47:10;99157.75;;;12.13;100.00
50123;BME280;36021;48.670;6.184;2023-05-16T08:49:39;99157.78;;;12.26;100.00
50123;BME280;36021;48.670;6.184;2023-05-16T08:52:08;99169.06;;;12.30;100.00
50123;BME280;36021;48.670;6.184;2023-05-16T08:54:34;99157.56;;;12.23;100.00
50123;BME280;36021;48.670;6.184;2023-05-16T08:57:02;99158.63;;;12.08;100.00
50123;BME280;36021;48.670;6.184;2023-05-16T08:59:31;99160.06;;;12.06;100.00
50123;BME280;36021;48.670;6.184;2023-05-16T09:01:58;99157.31;;;12.06;100.00
50123;BME280;36021;48.670;6.184;2023-05-16T09:04:24;99168.56;;;12.09;100.00
50123;BME280;36021;48.670;6.184;2023-05-16T09:06:51;99164.03;;;11.99;100.00
50123;BME280;36021;48.670;6.184;2023-05-16T09:09:18;99177.09;;;11.75;100.00
50123;BME280;36021;48.670;6.184;2023-05-16T09:11:44;99186.91;;;11.63;100.00
50123;BME280;36021;48.670;6.184;2023-05-16T09:14:10;99183.25;;;11.48;100.00
50123;BME280;36021;48.670;6.184;2023-05-16T09:16:35;99189.56;;;11.73;100.00
50123;BME280;36021;48.670;6.184;2023-05-16T09:19:01;99189.16;;;11.61;100.00
50123;BME280;36021;48.670;6.184;2023-05-16T09:21:28;99184.00;;;11.78;100.00
50123;BME280;36021;48.670;6.184;2023-05-16T09:23:54;99190.28;;;11.60;100.00
50123;BME280;36021;48.670;6.184;2023-05-16T09:26:21;99193.63;;;11.57;100.00
50123;BME280;36021;48.670;6.184;2023-05-16T09:28:47;99184.25;;;11.58;100.00
50123;BME280;36021;48.670;6.184;2023-05-16T09:31:23;99207.53;;;11.52;100.00
50123;BME280;36021;48.670;6.184;2023-05-16T09:33:57;99204.06;;;11.60;100.00
50123;BME280;36021;48.670;6.184;2023-05-16T09:36:25;99199.00;;;11.67;100.00
50123;BME280;36021;48.670;6.184;2023-05-16T09:38:51;99198.59;;;11.78;100.00
50123;BME280;36021;48.670;6.184;2023-05-16T09:41:16;99205.13;;;11.64;100.00
50123;BME280;36021;48.670;6.184;2023-05-16T09:43:44;99203.25;;;11.40;100.00
50123;BME280;36021;48.670;6.184;2023-05-16T09:46:14;99213.16;;;11.41;100.00
50123;BME280;36021;48.670;6.184;2023-05-16T09:48:43;99216.44;;;11.43;100.00
50123;BME280;36021;48.670;6.184;2023-05-16T09:51:10;99203.28;;;11.35;100.00
50123;BME280;36021;48.670;6.184;2023-05-16T09:53:37;99218.09;;;11.44;100.00
50123;BME280;36021;48.670;6.184;2023-05-16T09:56:05;99209.72;;;11.49;100.00
50123;BME280;36021;48.670;6.184;2023-05-16T09:58:33;99220.00;;;11.68;100.00
50123;BME280;36021;48.670;6.184;2023-05-16T10:01:00;99216.06;;;11.74;100.00
50123;BME280;36021;48.670;6.184;2023-05-16T10:03:28;99219.16;;;11.67;100.00
50123;BME280;36021;48.670;6.184;2023-05-16T10:05:54;99214.75;;;11.66;100.00
50123;BME280;36021;48.670;6.184;2023-05-16T10:08:23;99206.09;;;11.78;100.00
50123;BME280;36021;48.670;6.184;2023-05-16T10:10:51;99220.72;;;11.97;100.00
50123;BME280;36021;48.670;6.184;2023-05-16T10:13:19;99212.84;;;11.85;100.00
50123;BME280;36021;48.670;6.184;2023-05-16T10:15:48;99217.03;;;12.01;100.00
50123;BME280;36021;48.670;6.184;2023-05-16T10:18:16;99206.81;;;12.02;100.00
50123;BME280;36021;48.670;6.184;2023-05-16T10:20:45;99213.38;;;12.06;100.00
50123;BME280;36021;48.670;6.184;2023-05-16T10:23:16;99214.09;;;12.12;100.00
50123;BME280;36021;48.670;6.184;2023-05-16T10:25:44;99223.44;;;12.16;100.00
50123;BME280;36021;48.670;6.184;2023-05-16T10:28:12;99214.72;;;12.09;100.00
50123;BME280;36021;48.670;6.184;2023-05-16T10:30:40;99218.31;;;12.09;100.00
50123;BME280;36021;48.670;6.184;2023-05-16T10:33:14;99219.03;;;12.33;100.00
50123;BME280;36021;48.670;6.184;2023-05-16T10:35:43;99228.50;;;12.46;100.00
50123;BME280;36021;48.670;6.184;2023-05-16T10:38:10;99215.59;;;12.55;100.00
50123;BME280;36021;48.670;6.184;2023-05-16T10:40:39;99222.75;;;12.42;100.00
50123;BME280;36021;48.670;6.184;2023-05-16T10:43:07;99224.47;;;12.38;100.00
50123;BME280;36021;48.670;6.184;2023-05-16T10:45:34;99217.16;;;12.29;100.00
50123;BME280;36021;48.670;6.184;2023-05-16T10:48:04;99218.03;;;12.43;100.00
50123;BME280;36021;48.670;6.184;2023-05-16T10:56:05;99217.22;;;12.42;100.00
50123;BME280;36021;48.670;6.184;2023-05-16T11:01:27;99218.59;;;12.59;100.00
50123;BME280;36021;48.670;6.184;2023-05-16T11:11:41;99209.13;;;12.92;100.00
50123;BME280;36021;48.670;6.184;2023-05-16T11:14:08;99204.75;;;13.04;100.00
50123;BME280;36021;48.670;6.184;2023-05-16T11:16:34;99210.41;;;13.13;100.00
50123;BME280;36021;48.670;6.184;2023-05-16T11:19:07;99216.34;;;13.34;100.00
50123;BME280;36021;48.670;6.184;2023-05-16T11:22:09;99207.09;;;13.38;100.00
50123;BME280;36021;48.670;6.184;2023-05-16T11:24:36;99211.41;;;13.94;100.00
50123;BME280;36021;48.670;6.184;2023-05-16T11:27:05;99201.97;;;14.75;100.00
50123;BME280;36021;48.670;6.184;2023-05-16T11:29:33;99214.50;;;15.03;100.00
50123;BME280;36021;48.670;6.184;2023-05-16T11:32:01;99215.06;;;15.14;100.00
50123;BME280;36021;48.670;6.184;2023-05-16T11:34:28;99204.13;;;15.66;100.00
50123;BME280;36021;48.670;6.184;2023-05-16T11:36:54;99197.97;;;15.86;100.00
50123;BME280;36021;48.670;6.184;2023-05-16T11:39:21;99203.66;;;15.72;100.00
50123;BME280;36021;48.670;6.184;2023-05-16T11:41:49;99205.78;;;15.67;100.00
50123;BME280;36021;48.670;6.184;2023-05-16T11:44:15;99197.63;;;16.30;100.00
50123;BME280;36021;48.670;6.184;2023-05-16T11:46:41;99189.47;;;16.25;100.00
50123;BME280;36021;48.670;6.184;2023-05-16T11:49:10;99186.50;;;16.30;100.00
50123;BME280;36021;48.670;6.184;2023-05-16T11:51:42;99184.41;;;16.01;100.00
50123;BME280;36021;48.670;6.184;2023-05-16T11:54:08;99190.13;;;16.22;100.00
50123;BME280;36021;48.670;6.184;2023-05-16T11:56:35;99184.72;;;16.17;100.00
50123;BME280;36021;48.670;6.184;2023-05-16T11:59:02;99176.22;;;16.22;100.00
50123;BME280;36021;48.670;6.184;2023-05-16T12:01:34;99188.81;;;16.45;100.00
50123;BME280;36021;48.670;6.184;2023-05-16T12:04:00;99180.13;;;16.64;100.00
50123;BME280;36021;48.670;6.184;2023-05-16T12:06:26;99183.84;;;16.77;100.00
50123;BME280;36021;48.670;6.184;2023-05-16T12:08:53;99192.38;;;16.54;100.00
50123;BME280;36021;48.670;6.184;2023-05-16T12:11:22;99201.59;;;16.29;100.00
50123;BME280;36021;48.670;6.184;2023-05-16T12:13:47;99192.41;;;16.37;100.00
50123;BME280;36021;48.670;6.184;2023-05-16T12:16:13;99191.09;;;16.43;100.00
50123;BME280;36021;48.670;6.184;2023-05-16T12:18:39;99195.66;;;16.74;100.00
50123;BME280;36021;48.670;6.184;2023-05-16T12:21:05;99193.09;;;17.06;100.00
50123;BME280;36021;48.670;6.184;2023-05-16T12:23:32;99188.59;;;16.76;100.00
50123;BME280;36021;48.670;6.184;2023-05-16T12:25:58;99186.50;;;16.64;100.00
50123;BME280;36021;48.670;6.184;2023-05-16T12:28:33;99188.94;;;16.75;100.00
50123;BME280;36021;48.670;6.184;2023-05-16T12:31:00;99182.97;;;16.93;100.00
50123;BME280;36021;48.670;6.184;2023-05-16T12:33:26;99190.56;;;17.22;100.00
50123;BME280;36021;48.670;6.184;2023-05-16T12:35:51;99188.34;;;17.07;100.00
50123;BME280;36021;48.670;6.184;2023-05-16T12:38:18;99187.97;;;17.17;100.00
50123;BME280;36021;48.670;6.184;2023-05-16T12:40:46;99197.03;;;17.05;100.00
50123;BME280;36021;48.670;6.184;2023-05-16T12:43:15;99203.66;;;16.84;100.00
50123;BME280;36021;48.670;6.184;2023-05-16T12:45:48;99203.13;;;16.90;100.00
50123;BME280;36021;48.670;6.184;2023-05-16T12:48:14;99199.69;;;16.93;100.00
50123;BME280;36021;48.670;6.184;2023-05-16T12:50:40;99202.66;;;16.88;100.00
50123;BME280;36021;48.670;6.184;2023-05-16T12:53:10;99202.56;;;17.14;100.00
50123;BME280;36021;48.670;6.184;2023-05-16T12:55:37;99203.31;;;16.85;100.00
50123;BME280;36021;48.670;6.184;2023-05-16T12:58:03;99207.78;;;16.60;100.00
50123;BME280;36021;48.670;6.184;2023-05-16T13:00:31;99197.81;;;16.68;100.00
50123;BME280;36021;48.670;6.184;2023-05-16T13:02:57;99193.22;;;16.63;100.00
50123;BME280;36021;48.670;6.184;2023-05-16T13:05:24;99197.50;;;16.35;100.00
50123;BME280;36021;48.670;6.184;2023-05-16T13:07:50;99203.19;;;16.30;100.00
50123;BME280;36021;48.670;6.184;2023-05-16T13:10:17;99203.53;;;16.37;100.00
50123;BME280;36021;48.670;6.184;2023-05-16T13:12:43;99198.13;;;16.24;100.00
50123;BME280;36021;48.670;6.184;2023-05-16T13:15:10;99201.25;;;16.56;100.00
50123;BME280;36021;48.670;6.184;2023-05-16T13:17:40;99199.38;;;16.86;100.00
50123;BME280;36021;48.670;6.184;2023-05-16T13:20:08;99196.44;;;16.91;100.00
50123;BME280;36021;48.670;6.184;2023-05-16T13:22:38;99197.00;;;17.81;98.11